createdAt,value
2019-01-13T00:01:11.739Z,6.20
2019-01-13T00:06:02.661Z,6.10
2019-01-13T00:10:53.557Z,6.00
2019-01-13T00:15:44.466Z,6.00
2019-01-13T00:20:35.363Z,6.40
2019-01-13T00:25:26.270Z,6.60
2019-01-13T00:30:19.476Z,6.30
2019-01-13T00:35:08.826Z,6.30
2019-01-13T00:40:00.478Z,6.00
2019-01-13T00:44:51.379Z,6.00
2019-01-13T00:49:43.055Z,6.00
2019-01-13T00:54:33.993Z,6.00
2019-01-13T00:59:24.894Z,6.50
2019-01-13T01:04:15.790Z,6.50
2019-01-13T01:09:06.685Z,6.40
2019-01-13T01:13:58.382Z,6.00
2019-01-13T01:18:49.278Z,6.00
2019-01-13T01:23:40.214Z,5.90
2019-01-13T01:28:31.125Z,5.80
2019-01-13T01:33:25.998Z,5.90
2019-01-13T01:38:12.931Z,6.40
2019-01-13T01:43:03.881Z,6.50
2019-01-13T01:47:54.776Z,6.30
2019-01-13T01:52:45.670Z,6.10
2019-01-13T01:57:37.302Z,5.90
2019-01-13T02:02:28.924Z,5.80
2019-01-13T02:07:19.908Z,5.80
2019-01-13T02:12:10.889Z,6.00
2019-01-13T02:17:01.844Z,6.40
2019-01-13T02:21:52.764Z,6.50
2019-01-13T02:26:43.651Z,6.30
2019-01-13T02:31:34.606Z,6.10
2019-01-13T02:36:25.522Z,5.90
2019-01-13T02:41:16.460Z,5.80
2019-01-13T02:46:07.460Z,5.70
2019-01-13T02:50:58.353Z,6.00
2019-01-13T02:55:49.245Z,6.40
2019-01-13T03:00:40.946Z,6.20
2019-01-13T03:05:31.952Z,6.10
2019-01-13T03:10:22.832Z,6.00
2019-01-13T03:15:19.335Z,5.80
2019-01-13T03:20:04.710Z,5.70
2019-01-13T03:24:55.589Z,5.70
2019-01-13T03:29:46.481Z,6.10
2019-01-13T03:34:37.376Z,6.40
2019-01-13T03:39:28.260Z,6.30
2019-01-13T03:44:19.204Z,6.10
2019-01-13T03:49:10.089Z,5.90
2019-01-13T03:54:01.010Z,5.80
2019-01-13T03:58:51.894Z,5.70
2019-01-13T04:03:42.872Z,5.70
2019-01-13T04:08:33.756Z,6.20
2019-01-13T04:13:24.645Z,6.40
2019-01-13T04:18:15.577Z,6.30
2019-01-13T04:23:07.206Z,6.00
2019-01-13T04:27:58.895Z,5.90
2019-01-13T04:32:49.776Z,5.80
2019-01-13T04:37:41.408Z,5.80
2019-01-13T04:42:33.093Z,6.20
2019-01-13T04:47:23.992Z,6.20
2019-01-13T04:52:14.907Z,6.40
2019-01-13T04:57:05.798Z,6.30
2019-01-13T05:01:57.502Z,6.00
2019-01-13T05:06:48.417Z,6.00
2019-01-13T05:11:39.320Z,5.90
2019-01-13T05:16:30.205Z,5.80
2019-01-13T05:21:21.089Z,5.90
2019-01-13T05:26:12.080Z,6.40
2019-01-13T05:31:02.970Z,6.40
2019-01-13T05:35:53.920Z,6.30
2019-01-13T05:40:44.805Z,6.10
2019-01-13T05:45:35.689Z,6.00
2019-01-13T05:50:26.687Z,5.80
2019-01-13T05:55:17.573Z,5.70
2019-01-13T06:00:08.473Z,6.00
2019-01-13T06:04:59.372Z,6.50
2019-01-13T06:09:51.073Z,6.20
2019-01-13T06:14:41.957Z,6.20
2019-01-13T06:19:32.843Z,6.10
2019-01-13T06:24:24.473Z,5.80
2019-01-13T06:29:16.114Z,5.80
2019-01-13T06:34:07.751Z,6.10
2019-01-13T06:38:59.448Z,6.50
2019-01-13T06:43:50.338Z,6.50
2019-01-13T06:48:41.237Z,6.50
2019-01-13T06:53:32.876Z,6.10
2019-01-13T06:58:24.560Z,6.00
2019-01-13T07:03:15.457Z,6.00
2019-01-13T07:08:06.348Z,5.90
2019-01-13T07:12:57.980Z,6.20
2019-01-13T07:17:49.664Z,6.60
2019-01-13T07:22:40.553Z,6.60
2019-01-13T07:27:31.464Z,6.50
2019-01-13T07:32:22.432Z,6.30
2019-01-13T07:37:13.316Z,6.20
2019-01-13T07:42:04.203Z,6.10
2019-01-13T07:46:55.833Z,6.00
2019-01-13T07:51:47.468Z,6.50
2019-01-13T07:56:39.172Z,6.70
2019-01-13T08:01:30.061Z,6.70
2019-01-13T08:06:20.949Z,6.50
2019-01-13T08:11:12.642Z,6.20
2019-01-13T08:16:03.529Z,6.20
2019-01-13T08:20:54.477Z,6.10
2019-01-13T08:25:45.369Z,6.10
2019-01-13T08:30:36.248Z,6.20
2019-01-13T08:35:27.132Z,6.70
2019-01-13T08:40:18.044Z,6.80
2019-01-13T08:45:08.934Z,6.60
2019-01-13T08:49:59.893Z,6.50
2019-01-13T08:54:50.781Z,6.30
2019-01-13T08:59:41.672Z,6.30
2019-01-13T09:04:33.352Z,6.50
2019-01-13T09:09:24.249Z,6.50
2019-01-13T09:14:15.201Z,6.90
2019-01-13T09:19:06.088Z,6.90
2019-01-13T09:23:57.014Z,6.70
2019-01-13T09:28:47.896Z,6.60
2019-01-13T09:33:39.533Z,6.30
2019-01-13T09:38:31.222Z,6.30
2019-01-13T09:43:22.109Z,6.40
2019-01-13T09:48:13.057Z,6.80
2019-01-13T09:53:03.962Z,7.00
2019-01-13T09:57:54.850Z,6.90
2019-01-13T10:02:46.801Z,6.70
2019-01-13T10:07:36.664Z,6.60
2019-01-13T10:12:27.552Z,6.50
2019-01-13T10:17:18.540Z,6.40
2019-01-13T10:22:09.425Z,6.70
2019-01-13T10:27:00.324Z,7.10
2019-01-13T10:31:51.204Z,7.10
2019-01-13T10:36:42.093Z,6.90
2019-01-13T10:41:33.787Z,6.70
2019-01-13T10:46:24.677Z,6.60
2019-01-13T10:51:15.565Z,6.60
2019-01-13T10:56:07.249Z,7.00
2019-01-13T11:00:58.136Z,7.00
2019-01-13T11:05:49.773Z,7.10
2019-01-13T11:10:40.665Z,7.10
2019-01-13T11:15:31.640Z,6.90
2019-01-13T11:20:25.536Z,6.80
2019-01-13T11:25:16.433Z,6.70
2019-01-13T11:30:07.321Z,6.70
2019-01-13T11:34:59.018Z,7.30
2019-01-13T11:39:49.925Z,7.30
2019-01-13T11:44:40.854Z,7.30
2019-01-13T11:49:31.766Z,7.10
2019-01-13T11:54:22.657Z,6.90
2019-01-13T11:59:13.546Z,6.80
2019-01-13T12:04:05.228Z,6.80
2019-01-13T12:08:56.156Z,6.80
2019-01-13T12:13:47.917Z,7.30
2019-01-13T12:18:40.665Z,7.30
2019-01-13T12:23:28.897Z,7.20
2019-01-13T12:28:19.785Z,7.00
2019-01-13T12:33:11.418Z,6.70
2019-01-13T12:38:03.105Z,6.70
2019-01-13T12:42:54.045Z,6.70
2019-01-13T12:47:45.028Z,7.00
2019-01-13T12:52:35.919Z,7.30
2019-01-13T12:57:27.593Z,7.10
2019-01-13T13:02:18.535Z,7.10
2019-01-13T13:07:09.421Z,7.00
2019-01-13T13:12:00.313Z,6.80
2019-01-13T13:16:51.281Z,6.70
2019-01-13T13:21:42.196Z,6.90
2019-01-13T13:26:33.092Z,7.40
2019-01-13T13:31:23.981Z,7.40
2019-01-13T13:36:15.677Z,7.20
2019-01-13T13:41:06.584Z,7.20
2019-01-13T13:45:57.589Z,7.40
2019-01-13T13:50:48.526Z,7.80
2019-01-13T13:55:39.413Z,8.00
2019-01-13T14:00:30.313Z,7.80
2019-01-13T14:05:21.992Z,7.50
2019-01-13T14:10:13.772Z,7.50
2019-01-13T14:15:04.687Z,7.90
2019-01-13T14:19:55.673Z,8.00
2019-01-13T14:24:46.558Z,7.90
2019-01-13T14:29:37.498Z,7.70
2019-01-13T14:34:28.422Z,7.60
2019-01-13T14:39:19.310Z,7.50
2019-01-13T14:44:10.215Z,7.90
2019-01-13T14:49:01.904Z,8.00
2019-01-13T14:53:52.790Z,8.00
2019-01-13T14:58:43.736Z,7.90
2019-01-13T15:03:34.661Z,7.80
2019-01-13T15:08:25.550Z,7.70
2019-01-13T15:13:16.444Z,7.80
2019-01-13T15:18:08.137Z,8.40
2019-01-13T15:22:59.045Z,8.30
2019-01-13T15:27:49.965Z,8.20
2019-01-13T15:32:40.853Z,8.00
2019-01-13T15:37:31.813Z,7.90
2019-01-13T15:42:22.725Z,7.80
2019-01-13T15:47:13.677Z,8.00
2019-01-13T15:52:04.758Z,8.50
2019-01-13T15:56:55.704Z,8.40
2019-01-13T16:01:46.600Z,8.30
2019-01-13T16:06:37.529Z,8.10
2019-01-13T16:11:29.175Z,8.00
2019-01-13T16:16:20.156Z,7.90
2019-01-13T16:21:11.086Z,8.20
2019-01-13T16:26:02.017Z,8.50
2019-01-13T16:30:52.941Z,8.40
2019-01-13T16:35:43.827Z,8.30
2019-01-13T16:40:34.713Z,8.10
2019-01-13T16:45:26.360Z,7.90
2019-01-13T16:50:17.992Z,8.30
2019-01-13T16:55:09.641Z,8.50
2019-01-13T17:00:00.524Z,8.50
2019-01-13T17:04:51.421Z,8.40
2019-01-13T17:09:42.317Z,8.30
2019-01-13T17:14:33.220Z,8.10
2019-01-13T17:19:24.104Z,8.00
2019-01-13T17:24:14.994Z,7.90
2019-01-13T17:29:05.881Z,8.30
2019-01-13T17:33:56.768Z,8.60
2019-01-13T17:38:48.404Z,8.30
2019-01-13T17:43:40.028Z,8.20
2019-01-13T17:48:30.924Z,8.10
2019-01-13T17:53:21.828Z,8.00
2019-01-13T17:58:12.719Z,8.00
2019-01-13T18:03:03.675Z,8.40
2019-01-13T18:07:54.518Z,8.60
2019-01-13T18:12:45.500Z,8.50
2019-01-13T18:17:36.388Z,8.30
2019-01-13T18:22:27.281Z,8.10
2019-01-13T18:27:18.916Z,7.90
2019-01-13T18:32:10.541Z,8.30
2019-01-13T18:37:01.554Z,8.20
2019-01-13T18:41:52.439Z,8.30
2019-01-13T18:46:43.328Z,8.10
2019-01-13T18:51:34.216Z,7.90
2019-01-13T18:56:25.105Z,7.60
2019-01-13T19:01:15.990Z,7.50
2019-01-13T19:06:14.020Z,7.50
2019-01-13T19:11:04.900Z,7.90
2019-01-13T19:15:55.843Z,7.90
2019-01-13T19:20:46.745Z,7.70
2019-01-13T19:25:37.626Z,7.50
2019-01-13T19:30:29.272Z,7.20
2019-01-13T19:35:20.905Z,7.10
2019-01-13T19:40:13.484Z,7.60
2019-01-13T19:45:04.377Z,7.60
2019-01-13T19:49:56.064Z,7.50
2019-01-13T19:54:46.956Z,7.40
2019-01-13T19:59:37.845Z,7.20
2019-01-13T20:04:29.472Z,6.90
2019-01-13T20:09:21.177Z,6.90
2019-01-13T20:14:12.066Z,6.80
2019-01-13T20:19:02.948Z,7.30
2019-01-13T20:23:53.944Z,7.40
2019-01-13T20:28:44.838Z,7.20
2019-01-13T20:33:35.737Z,7.00
2019-01-13T20:38:26.625Z,6.80
2019-01-13T20:43:18.257Z,6.50
2019-01-13T20:48:09.141Z,6.50
2019-01-13T20:53:00.032Z,6.90
2019-01-13T20:57:50.920Z,7.10
2019-01-13T21:02:42.544Z,6.80
2019-01-13T21:07:33.428Z,6.70
2019-01-13T21:12:24.313Z,6.60
2019-01-13T21:17:15.220Z,6.50
2019-01-13T21:22:06.896Z,6.60
2019-01-13T21:26:57.837Z,6.60
2019-01-13T21:31:48.728Z,7.00
2019-01-13T21:36:39.668Z,7.00
2019-01-13T21:41:30.559Z,6.80
2019-01-13T21:46:21.448Z,6.60
2019-01-13T21:51:13.090Z,6.40
2019-01-13T21:56:03.982Z,6.30
2019-01-13T22:00:54.869Z,6.50
2019-01-13T22:05:45.790Z,6.90
2019-01-13T22:10:36.680Z,6.90
2019-01-13T22:15:27.588Z,6.70
2019-01-13T22:20:18.641Z,6.60
2019-01-13T22:25:09.569Z,6.40
2019-01-13T22:30:00.485Z,6.30
2019-01-13T22:34:51.520Z,6.30
2019-01-13T22:39:42.475Z,6.90
2019-01-13T22:44:34.133Z,6.70
2019-01-13T22:49:25.082Z,6.70
2019-01-13T22:54:15.993Z,6.50
2019-01-13T22:59:06.922Z,6.40
2019-01-13T23:03:57.832Z,6.30
2019-01-13T23:08:48.774Z,6.20
2019-01-13T23:13:39.798Z,6.60
2019-01-13T23:18:30.800Z,6.80
2019-01-13T23:23:21.713Z,6.60
2019-01-13T23:28:12.625Z,6.40
2019-01-13T23:33:03.553Z,6.20
2019-01-13T23:37:54.950Z,6.10
2019-01-13T23:42:45.984Z,6.00
2019-01-13T23:47:36.917Z,6.20
2019-01-13T23:52:27.843Z,6.60
2019-01-13T23:57:18.766Z,6.50
